Terminal Aerodrome Forecast
Issued by NWS Topeka, KS

Home | Current Version | Previous Version | Text Only | Print | Product List | Glossary On
Versions: 1 2 3 4 5 6 7 8 9 10 11 12 13 14 15 16 17 18
000
FTUS43 KTOP 282300
TAFTOP
TAF
KTOP 282328Z 2900/2924 26010KT P6SM SCT250
     FM290400 31015G23KT P6SM FEW250
     FM290800 33018G27KT P6SM BKN020
     FM292000 34013KT P6SM SCT025=

USA.gov is the U.S. government's official web portal to all federal, state and local government web resources and services.